Colorado Springs, CO (80919)

6:50 AM MDT on July 25, 2016 (GMT -0600)
At the Orton-Urbina's | | Change Station

Elev 6700 ft 38.93 °N, 104.85 °W | Updated 33 seconds ago

Clear
Clear
57.3 °F
Feels Like 57.3 °F
N
3.1
Wind Variable Wind from NNE
Gusts 4.0 mph

Today
High -- | Low -- °F
--% Chance of Precip.
Yesterday
High -- | Low -- °F
Precip. -- in
Pressure 30.06 in
Visibility 10.0 miles
Clouds Clear
Dew Point 54 °F
Humidity 89%
Rainfall Not available.
Snow Depth Not available.
5:54 AM 8:16 PM
Waning Gibbous, 66% visible
METAR KAFF 251158Z AUTO 35005KT 10SM CLR 11/10 A3032 RMK AO2 SLP178 T01070103 10167 20107 57011
Pressure 30.06 in
Visibility 10.0 miles
Clouds Clear
Dew Point 54 °F
Humidity 89%
Rainfall Not available.
Snow Depth Not available.
5:54 AM 8:16 PM
Waning Gibbous, 66% visible
METAR KAFF 251158Z AUTO 35005KT 10SM CLR 11/10 A3032 RMK AO2 SLP178 T01070103 10167 20107 57011

10-Day Weather Forecast

Almanac

Astronomy

Jul. 25, 2016 Rise Set
Actual Time
Civil Twilight
Nautical Twilight
Astronomical Twilight
Moon
Length of Visible Light
Length of Day
Tomorrow will be .
, % of the Moon is Illuminated

Today's Extremes

State Highs State Lows

Community

WunderPhotos

Upload Photos

1,927,296 photos uploaded!

WunderBlog® & News

Nearby

Air Quality

  Air Quality AQ Index Pollutant
Not available.

Snow Depth

Station Depth Elevation

Earthquake Activity

City Distance Mag. Time & Date
Minimum magnitude displayed is 2.5.

Coastal Water Temperatures

Place Temperature

Stations

Nearby Weather Stations

Station Location Temp. Windchill Dew Point Humidity Wind Precip. Elev Updated Type
                   

Watches & Warnings

There are currently no watches in effect.